Weather at Maupiti Airport

Public forecast

Using degrees Celsius for public forecast. Weather courtesy of forecast.io.

Closest aviation weather report (METAR) to Maupiti Airport

Closest report is Faa'a International Airport, 165.8 nm (307.2 km) ESE. Retrieved 2021/08/02 17:30 UTC (29 minutes ago):

NTAA 021730Z 06008KT 9999 FEW026 24/17 Q1016 NOSIG

Closest aviation forecast (TAF) to Maupiti Airport

Closest forecast is Faa'a International Airport, 165.8 nm (307.2 km) ESE. Retrieved 2021/08/02 12:00 UTC (6 hours ago):

TAF NTAA 021100Z 0212/0318 VRB05KT 9999 FEW025 BECMG 0217/0219 05010KT